Time;durP1;ratioP1;P1;durP2;ratioP2;P2;SDS_P1;SDS_P2;PMS_P1;PMS_P2;Temp;Humidity;BMP_temperature;BMP_pressure;BME280_temperature;BME280_humidity;BME280_pressure;Samples;Min_cycle;Max_cycle;Signal;HPM_P1;HPM_P2
2023/06/09 00:01:27;;;;;;;15.27;6.57;;;;;;;19.05;100.00;101310.56;5246707;28;20070;-70
2023/06/09 00:03:57;;;;;;;12.40;7.15;;;;;;;19.02;100.00;101319.13;5246608;28;20050;-70
2023/06/09 00:06:30;;;;;;;18.13;6.65;;;;;;;18.99;100.00;101312.25;5246467;28;20025;-69
2023/06/09 00:09:01;;;;;;;14.70;7.28;;;;;;;18.92;100.00;101314.13;5246705;28;20489;-70
2023/06/09 00:11:32;;;;;;;13.30;7.45;;;;;;;18.85;100.00;101314.13;5246156;28;20448;-69
2023/06/09 00:14:03;;;;;;;17.83;7.38;;;;;;;18.80;100.00;101324.78;5233453;28;20040;-69
2023/06/09 00:16:33;;;;;;;14.55;6.72;;;;;;;18.76;100.00;101319.97;5226257;28;20028;-69
2023/06/09 00:19:04;;;;;;;12.52;7.38;;;;;;;18.74;100.00;101322.06;5235035;28;20028;-70
2023/06/09 00:21:37;;;;;;;18.40;6.78;;;;;;;18.70;100.00;101321.66;5233545;28;20398;-69
2023/06/09 00:24:07;;;;;;;16.88;7.10;;;;;;;18.67;100.00;101322.03;5245394;28;20012;-69
2023/06/09 00:26:38;;;;;;;13.80;6.68;;;;;;;18.64;100.00;101317.03;5245739;28;20493;-69
2023/06/09 00:29:08;;;;;;;17.70;7.05;;;;;;;18.61;100.00;101317.44;5246548;28;20027;-69
2023/06/09 00:31:41;;;;;;;13.73;6.82;;;;;;;18.55;100.00;101321.81;5233095;28;20040;-70
2023/06/09 00:34:12;;;;;;;15.60;7.18;;;;;;;18.51;100.00;101317.84;5245970;28;20028;-69
2023/06/09 00:36:42;;;;;;;18.55;6.55;;;;;;;18.48;100.00;101320.97;5245380;28;20032;-69
2023/06/09 00:39:13;;;;;;;16.25;6.57;;;;;;;18.45;100.00;101313.22;5246105;28;20066;-70
2023/06/09 00:41:44;;;;;;;12.45;6.07;;;;;;;18.41;100.00;101322.84;5246389;28;20111;-70
2023/06/09 00:44:14;;;;;;;12.00;6.38;;;;;;;18.37;100.00;101305.28;5245954;28;20017;-69
2023/06/09 00:46:45;;;;;;;12.85;6.63;;;;;;;18.34;100.00;101316.56;5245386;28;20031;-69
2023/06/09 00:49:15;;;;;;;17.60;5.97;;;;;;;18.33;100.00;101310.31;5245444;28;20389;-70
2023/06/09 00:51:46;;;;;;;15.25;7.13;;;;;;;18.29;100.00;101317.19;5245986;28;20047;-69
2023/06/09 00:54:17;;;;;;;15.93;7.07;;;;;;;18.25;100.00;101318.63;5239449;28;20532;-69
2023/06/09 00:56:48;;;;;;;16.00;6.45;;;;;;;18.22;100.00;101308.16;5238294;28;20028;-70
2023/06/09 00:59:19;;;;;;;13.45;6.65;;;;;;;18.19;100.00;101319.47;5245433;28;20381;-70
2023/06/09 01:01:50;;;;;;;13.30;5.72;;;;;;;18.17;100.00;101310.66;5245226;28;20028;-70
2023/06/09 01:04:21;;;;;;;14.90;6.45;;;;;;;18.18;100.00;101311.53;5246007;28;20395;-69
2023/06/09 01:07:03;;;;;;;16.77;6.93;;;;;;;18.13;100.00;101314.84;5245199;28;20016;-69
2023/06/09 01:09:41;;;;;;;12.68;6.30;;;;;;;18.08;100.00;101320.06;5245834;28;20032;-69
2023/06/09 01:12:29;;;;;;;16.08;6.82;;;;;;;18.01;100.00;101311.88;5245542;28;20428;-69
2023/06/09 01:15:18;;;;;;;15.80;7.00;;;;;;;17.97;100.00;101310.63;5245559;28;20033;-69
2023/06/09 01:18:05;;;;;;;24.05;7.55;;;;;;;17.92;100.00;101307.66;5232641;28;20386;-69
2023/06/09 01:20:38;;;;;;;12.63;6.40;;;;;;;17.90;100.00;101298.06;5233130;28;20020;-69
2023/06/09 01:23:20;;;;;;;16.05;6.05;;;;;;;17.86;100.00;101303.03;5237830;28;20040;-69
2023/06/09 01:25:52;;;;;;;18.98;6.45;;;;;;;17.82;100.00;101299.06;5245026;28;20097;-69
2023/06/09 01:28:24;;;;;;;14.50;6.30;;;;;;;17.78;100.00;101300.53;5238371;28;20446;-69
2023/06/09 01:30:56;;;;;;;15.23;6.88;;;;;;;17.75;100.00;101298.22;5238767;28;20371;-69
2023/06/09 01:33:27;;;;;;;14.75;6.53;;;;;;;17.72;100.00;101304.88;5245539;28;20021;-70
2023/06/09 01:35:58;;;;;;;14.10;6.50;;;;;;;17.70;100.00;101304.22;5244472;28;20064;-70
2023/06/09 01:38:29;;;;;;;16.00;6.70;;;;;;;17.68;100.00;101300.03;5235097;28;20035;-70
2023/06/09 01:40:59;;;;;;;15.90;6.63;;;;;;;17.60;100.00;101298.31;5228711;28;20028;-69
2023/06/09 01:43:30;;;;;;;19.27;6.88;;;;;;;17.55;100.00;101307.06;5233650;28;20501;-69
2023/06/09 01:46:01;;;;;;;15.15;6.78;;;;;;;17.51;100.00;101304.94;5242485;28;20028;-69
2023/06/09 01:48:56;;;;;;;11.73;6.57;;;;;;;17.46;100.00;101299.28;5232394;28;20029;-69
2023/06/09 01:51:46;;;;;;;11.18;6.85;;;;;;;17.42;100.00;101301.59;5234395;28;20025;-69
2023/06/09 01:54:23;;;;;;;14.35;6.60;;;;;;;17.38;100.00;101300.31;5244908;28;20097;-69
2023/06/09 01:56:58;;;;;;;17.55;6.60;;;;;;;17.35;100.00;101301.53;5244290;28;20028;-69
2023/06/09 01:59:37;;;;;;;11.73;6.28;;;;;;;17.33;100.00;101303.63;5244860;28;20036;-69
2023/06/09 02:02:10;;;;;;;19.45;6.57;;;;;;;17.29;100.00;101305.03;5231187;28;20432;-69
2023/06/09 02:04:45;;;;;;;15.57;7.15;;;;;;;17.26;100.00;101301.88;5244804;28;20095;-69
2023/06/09 02:07:17;;;;;;;18.27;6.65;;;;;;;17.22;100.00;101292.47;5244086;28;20059;-69
2023/06/09 02:09:49;;;;;;;16.15;7.43;;;;;;;17.17;100.00;101297.66;5244629;28;20056;-69
2023/06/09 02:12:19;;;;;;;16.00;6.50;;;;;;;17.13;100.00;101294.50;5236597;28;20024;-69
2023/06/09 02:14:50;;;;;;;18.40;7.07;;;;;;;17.12;100.00;101289.28;5224659;28;20017;-69
2023/06/09 02:17:21;;;;;;;18.55;7.82;;;;;;;17.10;100.00;101289.47;5224061;28;20029;-68
2023/06/09 02:19:51;;;;;;;17.45;6.93;;;;;;;17.06;100.00;101280.06;5225186;28;20024;-69
2023/06/09 02:22:22;;;;;;;17.60;7.20;;;;;;;16.99;100.00;101279.19;5229579;28;20074;-69
2023/06/09 02:24:52;;;;;;;18.73;7.03;;;;;;;16.95;100.00;101278.75;5244586;28;20024;-70
2023/06/09 02:27:23;;;;;;;15.55;7.30;;;;;;;16.90;100.00;101281.22;5231210;28;20029;-70
2023/06/09 02:29:53;;;;;;;13.98;7.03;;;;;;;16.85;100.00;101275.53;5243442;28;20017;-70
2023/06/09 02:32:24;;;;;;;18.20;7.30;;;;;;;16.80;100.00;101275.28;5244526;28;20028;-70
2023/06/09 02:34:54;;;;;;;17.98;7.38;;;;;;;16.77;100.00;101281.97;5226467;28;20028;-69
2023/06/09 02:37:26;;;;;;;13.20;7.07;;;;;;;16.73;100.00;101277.13;5243449;28;20074;-70
2023/06/09 02:39:57;;;;;;;20.30;7.15;;;;;;;16.68;100.00;101274.13;5244270;28;20037;-70
2023/06/09 02:42:27;;;;;;;19.25;7.05;;;;;;;16.64;100.00;101275.56;5244665;28;20016;-69
2023/06/09 02:44:58;;;;;;;13.10;7.85;;;;;;;16.57;100.00;101273.63;5234306;28;20415;-70
2023/06/09 02:47:29;;;;;;;15.05;7.07;;;;;;;16.52;100.00;101272.56;5240364;28;20070;-70
2023/06/09 02:49:59;;;;;;;15.32;7.90;;;;;;;16.46;100.00;101276.84;5244184;28;20055;-70
2023/06/09 02:52:31;;;;;;;15.25;8.30;;;;;;;16.40;100.00;101279.50;5230575;28;20025;-70
2023/06/09 02:55:03;;;;;;;15.25;7.35;;;;;;;16.35;100.00;101280.09;5244238;28;20397;-70
2023/06/09 02:57:33;;;;;;;16.58;7.50;;;;;;;16.29;100.00;101281.69;5236799;28;20087;-70
2023/06/09 03:00:07;;;;;;;22.10;7.80;;;;;;;16.27;100.00;101286.47;5237522;28;20020;-69
2023/06/09 03:02:40;;;;;;;27.10;7.63;;;;;;;16.26;100.00;101278.53;5244017;28;20194;-70
2023/06/09 03:05:11;;;;;;;18.08;7.32;;;;;;;16.26;100.00;101286.66;5243995;28;20051;-69
2023/06/09 03:07:41;;;;;;;14.77;6.93;;;;;;;16.23;100.00;101285.19;5243568;28;20020;-69
2023/06/09 03:10:12;;;;;;;18.92;7.43;;;;;;;16.21;100.00;101291.81;5230590;28;20033;-69
2023/06/09 03:12:42;;;;;;;18.73;7.43;;;;;;;16.17;100.00;101280.53;5244270;28;20103;-69
2023/06/09 03:15:15;;;;;;;18.23;7.22;;;;;;;16.15;100.00;101285.28;5243392;28;20028;-69
2023/06/09 03:17:47;;;;;;;17.45;7.25;;;;;;;16.13;100.00;101290.06;5243575;28;20031;-69
2023/06/09 03:20:19;;;;;;;18.70;6.80;;;;;;;16.11;100.00;101289.41;5241580;28;20366;-69
2023/06/09 03:22:52;;;;;;;21.40;7.30;;;;;;;16.11;100.00;101278.59;5230331;28;20032;-69
2023/06/09 03:25:24;;;;;;;23.67;8.18;;;;;;;16.10;100.00;101290.44;5247657;28;20025;-70
2023/06/09 03:27:54;;;;;;;19.75;7.28;;;;;;;16.06;100.00;101281.03;5247194;28;20022;-69
2023/06/09 03:30:25;;;;;;;16.25;7.10;;;;;;;16.05;100.00;101285.59;5246704;28;20024;-69
2023/06/09 03:32:55;;;;;;;13.57;8.20;;;;;;;16.03;100.00;101293.09;5234449;28;20621;-69
2023/06/09 03:35:26;;;;;;;18.98;8.73;;;;;;;16.00;100.00;101296.16;5247408;28;20021;-69
2023/06/09 03:37:56;;;;;;;15.07;7.15;;;;;;;15.98;100.00;101292.81;5246827;28;20028;-69
2023/06/09 03:40:27;;;;;;;15.38;6.95;;;;;;;16.00;100.00;101295.34;5234030;28;20021;-70
2023/06/09 03:42:57;;;;;;;22.55;8.32;;;;;;;16.00;100.00;101289.91;5227110;28;20108;-69
2023/06/09 03:45:27;;;;;;;20.83;7.40;;;;;;;15.98;100.00;101287.41;5228164;28;20020;-69
2023/06/09 03:47:58;;;;;;;19.92;8.07;;;;;;;15.94;100.00;101290.69;5238249;28;20389;-70
2023/06/09 03:50:28;;;;;;;20.52;7.68;;;;;;;15.92;100.00;101300.88;5239943;28;20020;-69
2023/06/09 03:52:59;;;;;;;17.42;7.70;;;;;;;15.90;100.00;101298.34;5236706;28;20047;-69
2023/06/09 03:55:31;;;;;;;19.23;7.50;;;;;;;15.92;100.00;101304.41;5247051;28;20021;-69
2023/06/09 03:58:01;;;;;;;18.08;7.43;;;;;;;15.93;100.00;101300.69;5246996;28;20028;-69
2023/06/09 04:00:32;;;;;;;17.95;7.28;;;;;;;15.92;100.00;101299.00;5242038;28;20216;-70
2023/06/09 04:03:03;;;;;;;18.08;7.70;;;;;;;15.94;100.00;101301.50;5238823;28;20034;-69
2023/06/09 04:05:33;;;;;;;19.08;7.20;;;;;;;15.93;100.00;101297.97;5240390;28;20028;-70
2023/06/09 04:08:04;;;;;;;20.50;8.27;;;;;;;15.95;100.00;101303.19;5239725;28;20032;-69
2023/06/09 04:10:34;;;;;;;16.35;7.65;;;;;;;15.96;100.00;101310.25;5239575;28;20120;-69
2023/06/09 04:13:05;;;;;;;14.55;6.95;;;;;;;15.98;100.00;101294.69;5228023;28;20020;-69
2023/06/09 04:15:36;;;;;;;20.13;8.38;;;;;;;16.01;100.00;101299.72;5237173;28;20029;-69
2023/06/09 04:18:06;;;;;;;17.25;8.23;;;;;;;16.01;100.00;101307.81;5229084;28;20012;-69
2023/06/09 04:20:38;;;;;;;17.88;7.93;;;;;;;16.01;100.00;101318.66;5246745;28;20028;-70
2023/06/09 04:23:09;;;;;;;21.52;8.50;;;;;;;16.03;100.00;101313.91;5239707;28;20181;-69
2023/06/09 04:25:39;;;;;;;27.70;8.57;;;;;;;16.04;100.00;101321.81;5246713;28;20107;-69
2023/06/09 04:28:10;;;;;;;29.23;8.00;;;;;;;16.09;100.00;101323.97;5246035;28;20035;-69
2023/06/09 04:30:41;;;;;;;20.67;7.72;;;;;;;16.13;100.00;101329.84;5246821;28;20470;-69
2023/06/09 04:33:12;;;;;;;20.98;7.57;;;;;;;16.15;100.00;101325.91;5226641;28;20053;-69
2023/06/09 04:35:43;;;;;;;19.92;7.40;;;;;;;16.16;100.00;101324.88;5238117;28;20021;-68
2023/06/09 04:38:14;;;;;;;20.02;7.35;;;;;;;16.18;100.00;101330.09;5246507;28;20074;-68
2023/06/09 04:40:45;;;;;;;18.00;8.25;;;;;;;16.19;100.00;101324.50;5232509;28;20025;-68
2023/06/09 04:43:16;;;;;;;18.48;7.88;;;;;;;16.20;100.00;101326.16;5246421;28;20024;-69
2023/06/09 04:45:47;;;;;;;16.58;7.60;;;;;;;16.24;100.00;101327.47;5229477;28;20029;-69
2023/06/09 04:48:17;;;;;;;22.90;7.95;;;;;;;16.26;100.00;101327.25;5237706;28;20039;-69
2023/06/09 04:50:49;;;;;;;17.75;7.85;;;;;;;16.30;100.00;101318.56;5246103;28;20095;-69
2023/06/09 04:53:20;;;;;;;19.38;7.93;;;;;;;16.33;100.00;101327.34;5233261;28;20108;-69
2023/06/09 04:55:52;;;;;;;15.10;7.60;;;;;;;16.38;100.00;101320.31;5244076;28;20073;-69
2023/06/09 04:58:23;;;;;;;22.30;9.00;;;;;;;16.42;100.00;101316.22;5246183;28;20059;-69
2023/06/09 05:00:55;;;;;;;18.98;8.30;;;;;;;16.46;100.00;101332.88;5246187;28;20051;-70
2023/06/09 05:03:27;;;;;;;15.93;7.72;;;;;;;16.50;100.00;101326.06;5245760;28;20389;-69
2023/06/09 05:05:58;;;;;;;27.27;8.20;;;;;;;16.55;100.00;101334.44;5245579;28;20496;-70
2023/06/09 05:08:28;;;;;;;14.77;7.95;;;;;;;16.60;100.00;101334.69;5245980;28;20028;-70
2023/06/09 05:10:59;;;;;;;19.48;8.90;;;;;;;16.65;100.00;101326.81;5246041;28;20020;-70
2023/06/09 05:13:29;;;;;;;19.80;8.88;;;;;;;16.71;100.00;101326.06;5245903;28;20024;-70
2023/06/09 05:16:00;;;;;;;19.92;10.02;;;;;;;16.77;100.00;101325.31;5244977;28;20508;-70
2023/06/09 05:18:30;;;;;;;23.58;10.65;;;;;;;16.85;100.00;101326.19;5236368;28;20466;-70
2023/06/09 05:21:01;;;;;;;21.45;10.43;;;;;;;16.93;100.00;101328.78;5237345;28;20099;-70
2023/06/09 05:23:33;;;;;;;15.55;9.38;;;;;;;17.00;100.00;101329.66;5237583;28;20032;-70
2023/06/09 05:26:03;;;;;;;17.60;9.48;;;;;;;17.06;100.00;101320.72;5245067;28;20033;-70
2023/06/09 05:28:34;;;;;;;23.92;10.70;;;;;;;17.14;100.00;101328.72;5236244;28;20546;-70
2023/06/09 05:31:04;;;;;;;17.60;10.32;;;;;;;17.22;100.00;101325.88;5241150;28;20106;-70
2023/06/09 05:33:36;;;;;;;18.60;10.18;;;;;;;17.30;100.00;101317.56;5245656;28;20020;-70
2023/06/09 05:36:06;;;;;;;21.35;10.48;;;;;;;17.42;100.00;101328.72;5231200;28;20028;-70
2023/06/09 05:38:37;;;;;;;23.85;10.63;;;;;;;17.51;100.00;101326.66;5245398;28;20382;-70
2023/06/09 05:41:07;;;;;;;23.88;10.85;;;;;;;17.61;100.00;101330.66;5231542;28;20023;-69
2023/06/09 05:43:38;;;;;;;21.08;11.35;;;;;;;17.71;100.00;101330.28;5245490;28;20097;-70
2023/06/09 05:46:09;;;;;;;21.20;10.90;;;;;;;17.82;100.00;101335.22;5231208;28;20024;-70
2023/06/09 05:48:39;;;;;;;21.60;10.75;;;;;;;17.96;100.00;101335.25;5227227;28;20103;-70
2023/06/09 05:51:10;;;;;;;23.95;11.45;;;;;;;18.09;100.00;101330.69;5245236;28;20069;-70
2023/06/09 05:53:42;;;;;;;22.08;10.85;;;;;;;18.29;100.00;101343.50;5244910;28;20035;-70
2023/06/09 05:56:15;;;;;;;21.85;11.05;;;;;;;18.49;100.00;101330.81;5244357;28;20021;-70
2023/06/09 05:58:45;;;;;;;21.75;10.82;;;;;;;18.83;100.00;101343.41;5245189;28;20130;-70
2023/06/09 06:01:16;;;;;;;19.05;11.18;;;;;;;19.41;100.00;101340.00;5234761;28;20017;-70
2023/06/09 06:03:46;;;;;;;20.92;10.93;;;;;;;20.26;100.00;101345.38;5242060;28;20028;-71
2023/06/09 06:06:17;;;;;;;20.17;10.02;;;;;;;21.07;100.00;101350.06;5244342;28;20439;-70
2023/06/09 06:08:47;;;;;;;25.20;10.70;;;;;;;21.83;100.00;101344.22;5244802;28;20035;-70
2023/06/09 06:11:18;;;;;;;16.80;9.65;;;;;;;22.33;100.00;101362.31;5244839;28;20115;-71
2023/06/09 06:13:48;;;;;;;18.42;10.75;;;;;;;22.74;100.00;101354.16;5231713;28;20024;-71
2023/06/09 06:16:19;;;;;;;16.15;10.43;;;;;;;23.03;100.00;101350.75;5243731;28;20027;-70
2023/06/09 06:18:49;;;;;;;16.73;10.63;;;;;;;23.16;100.00;101350.53;5236493;28;20032;-71
2023/06/09 06:21:20;;;;;;;17.75;10.65;;;;;;;23.43;100.00;101348.97;5237434;28;20069;-71
2023/06/09 06:23:50;;;;;;;21.63;11.10;;;;;;;23.68;100.00;101347.91;5231787;28;20499;-71
2023/06/09 06:26:21;;;;;;;23.58;10.45;;;;;;;23.98;100.00;101350.44;5240489;28;20025;-71
2023/06/09 06:28:51;;;;;;;19.08;10.13;;;;;;;23.97;100.00;101355.09;5244555;28;20040;-71
2023/06/09 06:31:22;;;;;;;15.93;10.45;;;;;;;24.06;100.00;101351.97;5244529;28;20028;-71
2023/06/09 06:33:52;;;;;;;17.45;10.45;;;;;;;24.35;100.00;101348.16;5244859;28;20073;-71
2023/06/09 06:36:23;;;;;;;22.20;9.98;;;;;;;24.66;100.00;101351.50;5243754;28;20359;-71
2023/06/09 06:38:53;;;;;;;18.92;11.00;;;;;;;25.05;100.00;101349.66;5244613;28;20021;-71
2023/06/09 06:41:25;;;;;;;18.75;11.07;;;;;;;24.98;100.00;101349.00;5244075;28;20032;-71
2023/06/09 06:43:56;;;;;;;14.85;10.23;;;;;;;25.14;100.00;101352.84;5244519;28;20020;-71
2023/06/09 06:46:26;;;;;;;16.38;10.30;;;;;;;25.40;100.00;101345.81;5243938;28;20718;-71
2023/06/09 06:48:57;;;;;;;20.30;11.73;;;;;;;25.75;100.00;101346.31;5244391;28;20025;-71
2023/06/09 06:51:28;;;;;;;17.15;11.68;;;;;;;25.95;100.00;101351.25;5244595;28;20488;-71
2023/06/09 06:53:58;;;;;;;16.30;10.90;;;;;;;26.22;100.00;101347.72;5244037;28;20028;-71
2023/06/09 06:56:29;;;;;;;24.05;10.80;;;;;;;26.25;100.00;101355.44;5243995;28;20024;-71
2023/06/09 06:59:00;;;;;;;18.42;10.88;;;;;;;26.43;100.00;101349.63;5246623;28;20025;-71
2023/06/09 07:01:32;;;;;;;14.75;9.48;;;;;;;26.59;100.00;101337.66;5248474;28;20047;-71
2023/06/09 07:04:02;;;;;;;19.27;10.60;;;;;;;26.45;100.00;101341.91;5242223;28;20032;-71
2023/06/09 07:06:33;;;;;;;18.60;10.43;;;;;;;26.62;100.00;101343.75;5240075;28;20028;-72
2023/06/09 07:09:04;;;;;;;18.30;10.15;;;;;;;26.61;100.00;101345.69;5217150;28;20095;-72
2023/06/09 07:11:36;;;;;;;23.75;11.10;;;;;;;26.67;100.00;101355.63;5246629;28;20490;-72
2023/06/09 07:14:07;;;;;;;18.45;10.25;;;;;;;26.89;100.00;101355.53;5236798;28;20043;-72
2023/06/09 07:16:37;;;;;;;16.65;10.20;;;;;;;27.07;100.00;101349.66;5247201;28;20020;-72
2023/06/09 07:19:09;;;;;;;20.65;10.50;;;;;;;27.39;100.00;101345.19;5247808;28;20166;-72
2023/06/09 07:21:39;;;;;;;19.05;10.50;;;;;;;27.63;100.00;101347.25;5238613;28;20016;-72
2023/06/09 07:24:10;;;;;;;13.75;9.63;;;;;;;27.82;100.00;101347.66;5240188;28;20051;-72
2023/06/09 07:26:40;;;;;;;16.98;10.07;;;;;;;28.09;100.00;101338.34;5233557;28;20028;-72
2023/06/09 07:29:11;;;;;;;16.52;8.93;;;;;;;28.37;100.00;101340.66;5247822;28;20033;-72
2023/06/09 07:31:41;;;;;;;14.88;10.07;;;;;;;28.57;100.00;101341.78;5247521;28;20036;-72
2023/06/09 07:34:12;;;;;;;18.25;9.60;;;;;;;28.85;100.00;101351.44;5234284;28;20032;-72
2023/06/09 07:36:43;;;;;;;12.57;9.00;;;;;;;29.06;100.00;101350.34;5247140;28;20052;-72
2023/06/09 07:39:14;;;;;;;23.75;11.00;;;;;;;29.00;100.00;101345.94;5247263;28;20031;-72
2023/06/09 07:41:44;;;;;;;19.00;9.77;;;;;;;29.14;100.00;101335.16;5247093;28;20107;-72
2023/06/09 07:44:15;;;;;;;14.93;9.60;;;;;;;29.34;100.00;101342.59;5230388;28;20394;-72
2023/06/09 07:46:45;;;;;;;16.73;9.60;;;;;;;29.45;100.00;101340.63;5237626;28;20024;-72
2023/06/09 07:49:16;;;;;;;15.40;8.82;;;;;;;29.51;100.00;101345.84;5247215;28;20094;-72
2023/06/09 07:51:50;;;;;;;12.65;8.75;;;;;;;29.77;100.00;101348.56;5234915;28;20036;-72
2023/06/09 07:54:21;;;;;;;13.07;8.85;;;;;;;29.75;100.00;101353.56;5239922;28;20025;-72
2023/06/09 07:56:52;;;;;;;13.52;8.35;;;;;;;29.77;100.00;101343.88;5239804;28;20032;-72
2023/06/09 07:59:22;;;;;;;12.98;7.88;;;;;;;29.94;100.00;101346.28;5235183;28;20025;-72
2023/06/09 08:01:53;;;;;;;15.27;8.52;;;;;;;29.79;100.00;101349.13;5247309;28;20027;-72
2023/06/09 08:04:24;;;;;;;17.88;8.38;;;;;;;29.97;100.00;101342.09;5238316;28;20096;-72
2023/06/09 08:06:54;;;;;;;10.02;7.72;;;;;;;30.19;100.00;101348.13;5228915;28;20029;-72
2023/06/09 08:09:25;;;;;;;10.25;7.13;;;;;;;30.55;100.00;101350.66;5247122;28;20074;-72
2023/06/09 08:11:56;;;;;;;15.35;7.53;;;;;;;30.56;100.00;101353.13;5229308;28;20021;-72
2023/06/09 08:14:26;;;;;;;11.82;7.57;;;;;;;30.55;97.61;101354.22;5226567;28;20036;-72
2023/06/09 08:16:57;;;;;;;10.27;6.88;;;;;;;30.53;97.88;101356.47;5239182;28;20024;-72
2023/06/09 08:19:28;;;;;;;8.45;6.63;;;;;;;30.58;93.64;101350.06;5239018;28;20027;-72
2023/06/09 08:21:58;;;;;;;8.65;6.15;;;;;;;30.59;99.12;101341.47;5232426;28;20709;-72
2023/06/09 08:24:29;;;;;;;10.32;7.30;;;;;;;30.41;98.19;101336.63;5231421;28;20470;-72
2023/06/09 08:26:59;;;;;;;11.52;6.70;;;;;;;30.46;99.40;101341.28;5225653;28;20029;-71
2023/06/09 08:29:30;;;;;;;10.77;6.75;;;;;;;30.75;99.50;101338.63;5225842;28;20100;-72
2023/06/09 08:32:01;;;;;;;8.57;6.10;;;;;;;30.91;92.25;101338.19;5236269;28;20111;-72
2023/06/09 08:34:31;;;;;;;9.90;6.22;;;;;;;30.84;92.56;101336.88;5215220;28;20024;-71
2023/06/09 08:37:03;;;;;;;11.38;6.63;;;;;;;30.81;90.63;101331.91;5245885;28;20040;-72
2023/06/09 08:39:34;;;;;;;11.63;6.95;;;;;;;31.00;91.53;101320.94;5232989;28;20031;-71
2023/06/09 08:42:10;;;;;;;9.45;5.90;;;;;;;31.12;83.09;101322.19;5233403;28;20032;-72
2023/06/09 08:44:45;;;;;;;11.10;6.55;;;;;;;31.02;80.06;101327.00;5225934;28;20025;-72
2023/06/09 08:47:20;;;;;;;9.18;6.18;;;;;;;30.82;89.06;101322.47;5238393;28;20017;-72
2023/06/09 08:49:57;;;;;;;18.90;6.32;;;;;;;30.82;85.38;101325.25;5235970;28;20481;-72
2023/06/09 08:52:28;;;;;;;7.85;6.40;;;;;;;30.82;84.36;101319.72;5245896;28;20144;-72
2023/06/09 08:54:59;;;;;;;10.60;5.70;;;;;;;30.98;81.57;101321.25;5245896;28;20103;-72
2023/06/09 08:57:31;;;;;;;14.02;5.63;;;;;;;31.03;81.23;101315.66;5245458;28;20029;-72
2023/06/09 09:00:04;;;;;;;8.77;5.38;;;;;;;30.93;83.06;101318.50;5232306;28;20083;-72
2023/06/09 09:02:35;;;;;;;7.87;4.97;;;;;;;30.95;84.73;101311.56;5233470;28;20083;-72
2023/06/09 09:05:06;;;;;;;9.73;5.30;;;;;;;31.09;79.46;101310.88;5245512;28;20048;-72
2023/06/09 09:07:36;;;;;;;6.57;4.93;;;;;;;31.38;77.76;101310.88;5227258;28;20023;-72
2023/06/09 09:10:07;;;;;;;8.80;5.68;;;;;;;31.50;78.62;101316.81;5242149;28;20478;-73
2023/06/09 09:12:58;;;;;;;9.13;5.80;;;;;;;31.75;81.92;101309.31;5224207;28;20137;-72
2023/06/09 09:15:29;;;;;;;9.45;5.90;;;;;;;31.46;79.04;101312.97;5231257;28;20012;-72
2023/06/09 09:17:59;;;;;;;8.68;5.35;;;;;;;31.24;86.10;101307.13;5231427;28;20505;-72
2023/06/09 09:20:32;;;;;;;7.18;5.22;;;;;;;31.74;76.34;101311.25;5235701;28;20490;-72
2023/06/09 09:23:04;;;;;;;9.43;5.05;;;;;;;31.68;74.88;101298.59;5222782;28;20031;-72
2023/06/09 09:25:35;;;;;;;7.40;4.85;;;;;;;31.54;76.73;101308.75;5244937;28;20027;-73
2023/06/09 09:28:07;;;;;;;12.50;5.15;;;;;;;31.60;76.72;101307.56;5230452;28;20396;-73
2023/06/09 09:30:54;;;;;;;8.95;5.68;;;;;;;31.54;69.17;101308.75;5244710;28;20056;-72
2023/06/09 09:33:27;;;;;;;10.38;5.50;;;;;;;31.72;74.58;101291.28;5244728;28;20657;-72
2023/06/09 09:35:58;;;;;;;11.13;5.13;;;;;;;31.84;67.10;101299.22;5230929;28;20021;-72
2023/06/09 09:38:30;;;;;;;13.18;5.32;;;;;;;32.00;66.95;101295.13;5243834;28;20035;-72
2023/06/09 09:41:01;;;;;;;8.18;5.40;;;;;;;31.91;66.39;101296.91;5227080;28;20025;-72
2023/06/09 09:43:31;;;;;;;9.20;5.75;;;;;;;31.72;65.98;101299.63;5217990;28;20024;-72
2023/06/09 09:46:05;;;;;;;10.82;5.28;;;;;;;31.74;67.13;101289.06;5225051;28;21019;-73
2023/06/09 09:48:37;;;;;;;9.80;5.53;;;;;;;31.88;61.82;101287.25;5237867;28;20573;-73
2023/06/09 09:51:09;;;;;;;10.63;4.95;;;;;;;31.83;65.38;101289.25;5244233;28;20033;-72
2023/06/09 09:53:45;;;;;;;8.10;5.15;;;;;;;31.62;63.76;101289.47;5242938;28;20390;-72
2023/06/09 09:56:21;;;;;;;8.48;5.18;;;;;;;31.75;63.86;101285.16;5233113;28;20059;-73
2023/06/09 09:58:53;;;;;;;6.80;4.95;;;;;;;31.90;65.40;101292.47;5244529;28;20020;-73
2023/06/09 10:01:24;;;;;;;8.88;4.63;;;;;;;32.11;61.76;101290.22;5244149;28;20520;-73
2023/06/09 10:03:55;;;;;;;9.90;4.93;;;;;;;32.41;58.56;101288.97;5220395;28;20088;-72
2023/06/09 10:06:30;;;;;;;7.68;4.40;;;;;;;32.46;67.30;101280.56;5236241;28;20099;-72
2023/06/09 10:09:02;;;;;;;6.43;5.00;;;;;;;32.00;70.99;101283.19;5244592;28;20478;-74
2023/06/09 10:11:34;;;;;;;6.50;4.50;;;;;;;31.83;69.88;101276.22;5229317;28;20363;-72
2023/06/09 10:14:04;;;;;;;9.45;4.78;;;;;;;31.98;60.78;101277.94;5223273;28;20752;-73
2023/06/09 10:16:36;;;;;;;6.85;4.57;;;;;;;31.84;54.90;101271.50;5239442;28;20024;-72
2023/06/09 10:19:06;;;;;;;7.20;5.00;;;;;;;31.74;66.22;101266.06;5244212;28;20525;-72
2023/06/09 10:21:37;;;;;;;8.60;5.15;;;;;;;31.92;57.67;101263.31;5226051;28;20016;-72
2023/06/09 10:24:08;;;;;;;10.75;5.20;;;;;;;31.94;61.94;101263.03;5243158;28;20028;-73
2023/06/09 10:26:38;;;;;;;8.00;4.90;;;;;;;32.22;65.12;101255.63;5205905;28;20838;-73
2023/06/09 10:29:09;;;;;;;8.30;5.10;;;;;;;32.32;57.52;101257.44;5236927;28;20028;-72
2023/06/09 10:31:43;;;;;;;9.70;5.22;;;;;;;32.37;60.12;101249.06;5244318;28;20021;-73
2023/06/09 10:34:15;;;;;;;8.68;4.78;;;;;;;32.31;58.15;101253.00;5243034;28;20060;-72
2023/06/09 10:36:47;;;;;;;6.68;5.07;;;;;;;32.34;59.18;101244.09;5243356;28;20020;-72
2023/06/09 10:39:20;;;;;;;8.25;5.70;;;;;;;32.38;62.21;101239.59;5230278;28;20611;-73
2023/06/09 10:41:59;;;;;;;7.97;5.28;;;;;;;32.42;65.05;101243.41;5244197;28;20020;-72
2023/06/09 10:44:31;;;;;;;7.38;4.60;;;;;;;32.30;52.84;101252.19;5242361;28;20029;-73
2023/06/09 10:47:01;;;;;;;6.63;4.45;;;;;;;32.16;52.26;101248.53;5242680;28;20069;-73
2023/06/09 10:49:36;;;;;;;4.80;4.30;;;;;;;32.02;52.98;101242.91;5242855;28;20802;-73
2023/06/09 10:52:08;;;;;;;;;;;;;;;31.81;62.29;101242.38;5243776;28;20053;-73
2023/06/09 10:54:38;;;;;;;8.80;4.45;;;;;;;31.72;58.87;101238.59;5241524;28;19947;-72
2023/06/09 10:57:46;;;;;;;6.70;4.45;;;;;;;31.55;59.60;101236.34;5235947;28;20024;-72
2023/06/09 11:00:17;;;;;;;5.25;3.83;;;;;;;31.66;55.61;101242.56;5239689;28;20023;-72
2023/06/09 11:02:50;;;;;;;8.48;4.28;;;;;;;31.71;54.07;101240.56;5241847;28;20378;-73
2023/06/09 11:05:37;;;;;;;9.18;4.40;;;;;;;31.80;51.89;101234.34;5235740;28;20108;-72
2023/06/09 11:08:08;;;;;;;8.35;4.22;;;;;;;31.65;53.16;101230.66;5238358;28;20067;-72
2023/06/09 11:10:39;;;;;;;6.80;4.25;;;;;;;31.82;57.18;101234.88;5239041;28;20460;-72
2023/06/09 11:13:47;;;;;;;8.07;4.57;;;;;;;31.68;52.84;101226.47;5238132;28;20032;-73
2023/06/09 11:16:17;;;;;;;5.43;4.32;;;;;;;31.57;50.53;101223.00;5240093;28;20032;-72
2023/06/09 11:19:19;;;;;;;4.80;4.30;;;;;;;31.59;51.80;101220.78;5214235;28;20040;-72
2023/06/09 11:22:02;;;;;;;5.05;4.13;;;;;;;31.65;50.30;101214.03;5229190;28;20033;-73
2023/06/09 11:24:51;;;;;;;6.43;5.05;;;;;;;31.62;55.71;101214.59;5243001;28;20048;-72
2023/06/09 11:27:23;;;;;;;8.30;4.85;;;;;;;31.77;53.73;101196.09;5243012;28;20095;-72
2023/06/09 11:30:07;;;;;;;7.57;4.28;;;;;;;32.00;51.71;101213.81;5242771;28;20024;-73
2023/06/09 11:32:57;;;;;;;7.40;5.28;;;;;;;31.61;50.48;101204.66;5241795;28;20024;-72
2023/06/09 11:35:27;;;;;;;5.90;4.90;;;;;;;31.48;50.07;101197.09;5231010;28;20390;-73